createdAt,value
2023-03-19T00:00:01.341Z,997.12
2023-03-19T00:00:33.389Z,997.12
2023-03-19T00:01:04.928Z,997.12
2023-03-19T00:01:36.840Z,997.22
2023-03-19T00:02:17.218Z,997.22
2023-03-19T00:02:41.100Z,997.22
2023-03-19T00:03:12.858Z,997.12
2023-03-19T00:03:44.812Z,997.12
2023-03-19T00:04:16.672Z,997.22
2023-03-19T00:04:48.752Z,997.22
2023-03-19T00:05:20.900Z,997.22
2023-03-19T00:05:52.767Z,997.22
2023-03-19T00:06:24.636Z,997.22
2023-03-19T00:06:56.655Z,997.22
2023-03-19T00:07:28.663Z,997.22
2023-03-19T00:08:00.680Z,997.22
2023-03-19T00:08:32.620Z,997.32
2023-03-19T00:09:04.549Z,997.32
2023-03-19T00:09:36.558Z,997.22
2023-03-19T00:10:08.402Z,997.12
2023-03-19T00:10:40.533Z,997.12
2023-03-19T00:11:12.544Z,997.12
2023-03-19T00:11:44.990Z,997.12
2023-03-19T00:12:16.354Z,997.32
2023-03-19T00:12:48.329Z,997.32
2023-03-19T00:13:20.435Z,997.32
2023-03-19T00:13:52.514Z,997.32
2023-03-19T00:14:24.202Z,997.32
2023-03-19T00:14:56.244Z,997.32
2023-03-19T00:15:28.382Z,997.22
2023-03-19T00:16:00.397Z,997.22
2023-03-19T00:16:32.159Z,997.32
2023-03-19T00:17:04.164Z,997.32
2023-03-19T00:17:36.166Z,997.12
2023-03-19T00:18:08.183Z,997.22
2023-03-19T00:18:40.121Z,997.22
2023-03-19T00:19:12.098Z,997.32
2023-03-19T00:19:44.067Z,997.32
2023-03-19T00:20:16.177Z,997.12
2023-03-19T00:20:47.949Z,997.12
2023-03-19T00:21:20.016Z,997.22
2023-03-19T00:21:52.016Z,997.22
2023-03-19T00:22:24.029Z,997.12
2023-03-19T00:22:55.833Z,997.12
2023-03-19T00:23:27.877Z,997.12
2023-03-19T00:23:59.907Z,997.12
2023-03-19T00:24:31.914Z,997.02
2023-03-19T00:25:03.960Z,997.02
2023-03-19T00:25:35.916Z,997.12
2023-03-19T00:26:07.807Z,997.22
2023-03-19T00:26:39.969Z,997.22
2023-03-19T00:27:11.686Z,997.32
2023-03-19T00:27:43.674Z,997.32
2023-03-19T00:28:15.702Z,997.12
2023-03-19T00:28:47.734Z,997.12
2023-03-19T00:29:19.827Z,997.22
2023-03-19T00:29:51.578Z,997.22
2023-03-19T00:30:23.921Z,997.22
2023-03-19T00:30:55.726Z,997.22
2023-03-19T00:31:27.472Z,997.12
2023-03-19T00:31:59.520Z,997.12
2023-03-19T00:32:31.518Z,997.32
2023-03-19T00:33:03.631Z,997.32
2023-03-19T00:33:35.568Z,997.22
2023-03-19T00:34:07.389Z,997.22
2023-03-19T00:34:39.453Z,997.22
2023-03-19T00:35:11.484Z,997.32
2023-03-19T00:35:43.513Z,997.32
2023-03-19T00:36:15.351Z,997.22
2023-03-19T00:36:47.339Z,997.22
2023-03-19T00:37:19.361Z,997.12
2023-03-19T00:37:51.388Z,997.12
2023-03-19T00:38:23.203Z,997.43
2023-03-19T00:38:55.254Z,997.43
2023-03-19T00:39:27.255Z,997.22
2023-03-19T00:39:59.311Z,997.22
2023-03-19T00:40:31.187Z,997.12
2023-03-19T00:41:03.154Z,997.12
2023-03-19T00:41:35.180Z,997.22
2023-03-19T00:42:07.225Z,997.32
2023-03-19T00:42:39.080Z,997.32
2023-03-19T00:43:11.162Z,997.22
2023-03-19T00:43:43.087Z,997.22
2023-03-19T00:44:15.108Z,997.22
2023-03-19T00:44:46.932Z,997.22
2023-03-19T00:45:19.105Z,997.22
2023-03-19T00:45:51.101Z,997.22
2023-03-19T00:46:23.063Z,997.22
2023-03-19T00:46:54.905Z,997.22
2023-03-19T00:47:26.904Z,997.12
2023-03-19T00:47:58.915Z,997.12
2023-03-19T00:48:31.146Z,997.12
2023-03-19T00:49:02.757Z,997.12
2023-03-19T00:49:35.191Z,997.02
2023-03-19T00:50:06.797Z,996.92
2023-03-19T00:50:38.868Z,996.92
2023-03-19T00:51:10.886Z,997.22
2023-03-19T00:51:42.808Z,997.22
2023-03-19T00:52:14.728Z,996.92
2023-03-19T00:52:46.744Z,996.92
2023-03-19T00:53:18.609Z,997.22
2023-03-19T00:53:50.756Z,997.22
2023-03-19T00:54:22.634Z,997.22
2023-03-19T00:54:54.678Z,997.22
2023-03-19T00:55:26.500Z,997.12
2023-03-19T00:55:58.520Z,997.12
2023-03-19T00:56:30.829Z,997.12
2023-03-19T00:57:02.622Z,997.12
2023-03-19T00:57:34.426Z,997.32
2023-03-19T00:58:06.735Z,997.22
2023-03-19T00:58:38.509Z,997.22
2023-03-19T00:59:10.604Z,997.22
2023-03-19T00:59:42.323Z,997.22
2023-03-19T01:00:46.426Z,997.22
2023-03-19T01:01:18.469Z,997.32
2023-03-19T01:01:50.258Z,997.32
2023-03-19T01:02:22.289Z,997.32
2023-03-19T01:02:54.334Z,997.32
2023-03-19T01:03:26.310Z,997.43
2023-03-19T01:03:58.186Z,997.43
2023-03-19T01:04:30.291Z,997.32
2023-03-19T01:05:02.213Z,997.32
2023-03-19T01:05:34.930Z,997.32
2023-03-19T01:06:06.043Z,997.22
2023-03-19T01:06:38.242Z,997.22
2023-03-19T01:07:10.187Z,997.32
2023-03-19T01:07:42.185Z,997.32
2023-03-19T01:08:13.971Z,997.43
2023-03-19T01:08:45.955Z,997.43
2023-03-19T01:09:17.979Z,997.32
2023-03-19T01:09:50.060Z,997.32
2023-03-19T01:10:21.854Z,997.43
2023-03-19T01:10:53.875Z,997.43
2023-03-19T01:11:25.913Z,997.43
2023-03-19T01:11:57.963Z,997.43
2023-03-19T01:12:29.766Z,997.43
2023-03-19T01:13:01.812Z,997.43
2023-03-19T01:13:33.796Z,997.32
2023-03-19T01:14:05.833Z,997.32
2023-03-19T01:14:37.684Z,997.32
2023-03-19T01:15:09.904Z,997.43
2023-03-19T01:15:41.741Z,997.43
2023-03-19T01:16:13.868Z,997.22
2023-03-19T01:16:45.627Z,997.22
2023-03-19T01:17:17.627Z,997.43
2023-03-19T01:17:49.687Z,997.43
2023-03-19T01:18:21.651Z,997.53
2023-03-19T01:18:53.691Z,997.53
2023-03-19T01:19:25.516Z,997.32
2023-03-19T01:19:57.522Z,997.32
2023-03-19T01:20:29.744Z,997.43
2023-03-19T01:21:01.581Z,997.43
2023-03-19T01:21:33.424Z,997.32
2023-03-19T01:22:05.435Z,997.32
2023-03-19T01:22:37.492Z,997.43
2023-03-19T01:23:09.589Z,997.32
2023-03-19T01:23:41.443Z,997.32
2023-03-19T01:24:13.337Z,997.43
2023-03-19T01:24:45.386Z,997.43
2023-03-19T01:25:17.462Z,997.43
2023-03-19T01:25:49.223Z,997.43
2023-03-19T01:26:21.503Z,997.43
2023-03-19T01:26:53.277Z,997.43
2023-03-19T01:27:25.308Z,997.43
2023-03-19T01:27:57.116Z,997.43
2023-03-19T01:28:29.165Z,997.32
2023-03-19T01:29:01.291Z,997.32
2023-03-19T01:29:33.229Z,997.53
2023-03-19T01:30:05.299Z,997.53
2023-03-19T01:30:37.093Z,997.43
2023-03-19T01:31:09.638Z,997.43
2023-03-19T01:31:41.178Z,997.43
2023-03-19T01:32:12.945Z,997.32
2023-03-19T01:32:45.059Z,997.32
2023-03-19T01:33:17.021Z,997.43
2023-03-19T01:33:49.023Z,997.43
2023-03-19T01:34:21.129Z,997.32
2023-03-19T01:34:52.861Z,997.32
2023-03-19T01:35:24.962Z,997.43
2023-03-19T01:35:56.938Z,997.43
2023-03-19T01:36:28.767Z,997.43
2023-03-19T01:37:00.886Z,997.43
2023-03-19T01:37:32.799Z,997.43
2023-03-19T01:38:04.840Z,997.43
2023-03-19T01:38:36.706Z,997.32
2023-03-19T01:39:08.735Z,997.22
2023-03-19T01:39:40.934Z,997.22
2023-03-19T01:40:12.876Z,997.43
2023-03-19T01:40:44.581Z,997.43
2023-03-19T01:41:16.700Z,997.53
2023-03-19T01:41:48.662Z,997.53
2023-03-19T01:42:20.801Z,997.32
2023-03-19T01:42:52.508Z,997.32
2023-03-19T01:43:24.512Z,997.43
2023-03-19T01:43:56.545Z,997.43
2023-03-19T01:44:28.559Z,997.63
2023-03-19T01:45:00.790Z,997.63
2023-03-19T01:45:32.439Z,997.43
2023-03-19T01:46:04.568Z,997.43
2023-03-19T01:46:36.608Z,997.53
2023-03-19T01:47:08.339Z,997.53
2023-03-19T01:47:40.416Z,997.53
2023-03-19T01:48:12.378Z,997.43
2023-03-19T01:48:44.506Z,997.43
2023-03-19T01:49:16.199Z,997.53
2023-03-19T01:49:48.223Z,997.53
2023-03-19T01:50:20.350Z,997.22
2023-03-19T01:50:52.322Z,997.22
2023-03-19T01:51:24.135Z,997.32
2023-03-19T01:51:56.147Z,997.32
2023-03-19T01:52:28.156Z,997.43
2023-03-19T01:53:00.320Z,997.43
2023-03-19T01:53:32.012Z,997.22
2023-03-19T01:54:04.059Z,997.22
2023-03-19T01:54:36.097Z,997.32
2023-03-19T01:55:08.155Z,997.43
2023-03-19T01:55:40.147Z,997.43
2023-03-19T01:56:12.006Z,997.43
2023-03-19T01:56:43.991Z,997.43
2023-03-19T01:57:16.053Z,997.43
2023-03-19T01:57:48.030Z,997.43
2023-03-19T01:58:19.889Z,997.43
2023-03-19T01:58:51.976Z,997.43
2023-03-19T01:59:23.910Z,997.32
2023-03-19T01:59:55.925Z,997.32
2023-03-19T02:00:27.935Z,997.22
2023-03-19T02:00:59.826Z,997.22
2023-03-19T02:01:31.874Z,997.43
2023-03-19T02:02:03.845Z,997.43
2023-03-19T02:02:35.712Z,997.22
2023-03-19T02:03:07.736Z,997.43
2023-03-19T02:03:39.725Z,997.43
2023-03-19T02:04:11.853Z,997.32
2023-03-19T02:04:43.710Z,997.32
2023-03-19T02:05:15.828Z,997.32
2023-03-19T02:05:47.797Z,997.32
2023-03-19T02:06:19.690Z,997.32
2023-03-19T02:06:51.491Z,997.32
2023-03-19T02:07:23.573Z,997.32
2023-03-19T02:07:55.540Z,997.32
2023-03-19T02:08:27.563Z,997.32
2023-03-19T02:08:59.392Z,997.32
2023-03-19T02:09:31.429Z,997.22
2023-03-19T02:10:03.465Z,997.22
2023-03-19T02:10:35.759Z,997.43
2023-03-19T02:11:07.360Z,997.43
2023-03-19T02:11:39.380Z,997.43
2023-03-19T02:12:11.356Z,997.32
2023-03-19T02:12:43.415Z,997.32
2023-03-19T02:13:15.281Z,997.22
2023-03-19T02:13:47.236Z,997.22
2023-03-19T02:14:19.309Z,997.32
2023-03-19T02:14:51.307Z,997.32
2023-03-19T02:15:23.261Z,997.32
2023-03-19T02:15:55.338Z,997.32
2023-03-19T02:16:27.250Z,997.32
2023-03-19T02:16:59.235Z,997.32
2023-03-19T02:17:31.089Z,997.32
2023-03-19T02:18:03.062Z,997.32
2023-03-19T02:18:35.242Z,997.22
2023-03-19T02:19:07.143Z,997.53
2023-03-19T02:19:38.956Z,997.53
2023-03-19T02:20:11.022Z,997.22
2023-03-19T02:20:43.183Z,997.22
2023-03-19T02:21:14.876Z,997.43
2023-03-19T02:21:46.886Z,997.43
2023-03-19T02:22:18.908Z,997.43
2023-03-19T02:22:51.001Z,997.43
2023-03-19T02:23:22.958Z,997.43
2023-03-19T02:23:54.994Z,997.43
2023-03-19T02:24:27.113Z,997.32
2023-03-19T02:24:58.827Z,997.32
2023-03-19T02:25:30.968Z,997.32
2023-03-19T02:26:02.738Z,997.32
2023-03-19T02:26:34.791Z,997.43
2023-03-19T02:27:06.781Z,997.32
2023-03-19T02:27:38.776Z,997.32
2023-03-19T02:28:11.048Z,997.53
2023-03-19T02:28:42.647Z,997.53
2023-03-19T02:29:14.660Z,997.43
2023-03-19T02:29:48.986Z,997.43
2023-03-19T02:30:18.751Z,997.43
2023-03-19T02:30:50.644Z,997.43
2023-03-19T02:31:22.684Z,997.32
2023-03-19T02:31:54.606Z,997.32
2023-03-19T02:32:26.462Z,997.32
2023-03-19T02:32:58.579Z,997.32
2023-03-19T02:33:30.661Z,997.22
2023-03-19T02:34:02.508Z,997.22
2023-03-19T02:34:34.343Z,997.43
2023-03-19T02:35:06.376Z,997.32
2023-03-19T02:35:38.546Z,997.32
2023-03-19T02:36:10.660Z,997.43
2023-03-19T02:36:42.663Z,997.43
2023-03-19T02:37:14.287Z,997.32
2023-03-19T02:37:46.473Z,997.32
2023-03-19T02:38:18.610Z,997.53
2023-03-19T02:38:50.188Z,997.53
2023-03-19T02:39:22.163Z,997.22
2023-03-19T02:39:54.187Z,997.22
2023-03-19T02:40:26.212Z,997.22
2023-03-19T02:40:58.058Z,997.22
2023-03-19T02:41:30.126Z,997.32
2023-03-19T02:42:02.175Z,997.32
2023-03-19T02:42:34.172Z,997.43
2023-03-19T02:43:06.001Z,997.22
2023-03-19T02:43:38.003Z,997.22
2023-03-19T02:44:10.040Z,997.32
2023-03-19T02:44:42.050Z,997.32
2023-03-19T02:45:14.018Z,997.32
2023-03-19T02:45:45.894Z,997.32
2023-03-19T02:46:17.955Z,997.53
2023-03-19T02:46:50.063Z,997.53
2023-03-19T02:47:21.783Z,997.43
2023-03-19T02:47:53.798Z,997.43
2023-03-19T02:48:25.822Z,997.43
2023-03-19T02:48:57.858Z,997.43
2023-03-19T02:49:29.694Z,997.63
2023-03-19T02:50:01.870Z,997.63
2023-03-19T02:50:34.865Z,997.43
2023-03-19T02:51:05.851Z,997.43
2023-03-19T02:51:37.612Z,997.43
2023-03-19T02:52:09.649Z,997.53
2023-03-19T02:52:41.636Z,997.53
2023-03-19T02:53:13.678Z,997.43
2023-03-19T02:53:45.480Z,997.43
2023-03-19T02:54:17.513Z,997.53
2023-03-19T02:54:49.530Z,997.53
2023-03-19T02:55:21.603Z,997.32
2023-03-19T02:55:53.402Z,997.32
2023-03-19T02:56:25.445Z,997.32
2023-03-19T02:56:57.572Z,997.32
2023-03-19T02:57:29.535Z,997.43
2023-03-19T02:58:01.421Z,997.43
2023-03-19T02:58:33.883Z,997.22
2023-03-19T02:59:05.504Z,997.22
2023-03-19T02:59:37.380Z,997.02
2023-03-19T03:00:10.091Z,997.32
2023-03-19T03:00:41.383Z,997.32
2023-03-19T03:01:13.359Z,997.43
2023-03-19T03:01:45.394Z,997.43
2023-03-19T03:02:17.164Z,997.22
2023-03-19T03:02:49.164Z,997.22
2023-03-19T03:03:21.581Z,997.32
2023-03-19T03:03:53.280Z,997.32
2023-03-19T03:04:25.234Z,997.43
2023-03-19T03:04:57.146Z,997.43
2023-03-19T03:05:29.121Z,997.32
2023-03-19T03:06:01.261Z,997.32
2023-03-19T03:06:33.181Z,997.12
2023-03-19T03:07:04.994Z,997.12
2023-03-19T03:07:36.993Z,997.22
2023-03-19T03:08:09.020Z,997.43
2023-03-19T03:08:41.182Z,997.43
2023-03-19T03:09:12.907Z,997.32
2023-03-19T03:09:44.880Z,997.32
2023-03-19T03:10:16.962Z,997.22
2023-03-19T03:10:48.965Z,997.22
2023-03-19T03:11:20.898Z,997.32
2023-03-19T03:11:52.816Z,997.32
2023-03-19T03:12:24.845Z,997.12
2023-03-19T03:12:57.441Z,997.12
2023-03-19T03:13:28.711Z,997.12
2023-03-19T03:14:00.948Z,997.12
2023-03-19T03:14:32.755Z,997.22
2023-03-19T03:15:05.233Z,997.22
2023-03-19T03:15:36.592Z,997.22
2023-03-19T03:16:08.857Z,997.12
2023-03-19T03:16:40.814Z,997.12
2023-03-19T03:17:12.700Z,997.12
2023-03-19T03:17:44.533Z,997.12
2023-03-19T03:18:16.544Z,997.43
2023-03-19T03:18:48.605Z,997.43
2023-03-19T03:19:20.850Z,997.32
2023-03-19T03:19:52.474Z,997.32
2023-03-19T03:20:24.478Z,997.32
2023-03-19T03:20:56.494Z,997.32
2023-03-19T03:21:28.358Z,997.32
2023-03-19T03:22:00.446Z,997.32
2023-03-19T03:22:32.438Z,997.22
2023-03-19T03:23:04.425Z,997.22
2023-03-19T03:23:36.459Z,997.32
2023-03-19T03:24:08.250Z,997.43
2023-03-19T03:24:40.472Z,997.43
2023-03-19T03:25:12.362Z,997.32
2023-03-19T03:25:44.336Z,997.32
2023-03-19T03:26:16.186Z,997.53
2023-03-19T03:26:48.185Z,997.53
2023-03-19T03:27:20.292Z,997.53
2023-03-19T03:27:52.313Z,997.53
2023-03-19T03:28:24.090Z,997.43
2023-03-19T03:28:56.162Z,997.43
2023-03-19T03:29:28.130Z,997.43
2023-03-19T03:30:00.425Z,997.43
2023-03-19T03:30:32.309Z,997.43
2023-03-19T03:31:04.035Z,997.43
2023-03-19T03:31:36.104Z,997.43
2023-03-19T03:32:08.118Z,997.43
2023-03-19T03:32:40.018Z,997.43
2023-03-19T03:33:11.946Z,997.22
2023-03-19T03:33:43.930Z,997.22
2023-03-19T03:34:15.992Z,997.43
2023-03-19T03:34:47.775Z,997.43
2023-03-19T03:35:19.914Z,997.32
2023-03-19T03:35:51.881Z,997.32
2023-03-19T03:36:23.886Z,997.32
2023-03-19T03:36:55.734Z,997.32
2023-03-19T03:37:27.733Z,997.43
2023-03-19T03:37:59.745Z,997.43
2023-03-19T03:38:31.817Z,997.43
2023-03-19T03:39:03.628Z,997.43
2023-03-19T03:39:35.644Z,997.32
2023-03-19T03:40:07.664Z,997.43
2023-03-19T03:40:39.719Z,997.43
2023-03-19T03:41:11.529Z,997.32
2023-03-19T03:41:43.587Z,997.32
2023-03-19T03:42:15.599Z,997.32
2023-03-19T03:42:47.604Z,997.32
2023-03-19T03:43:19.436Z,997.43
2023-03-19T03:43:51.458Z,997.43
2023-03-19T03:44:23.502Z,997.32
2023-03-19T03:44:55.490Z,997.32
2023-03-19T03:45:27.465Z,997.32
2023-03-19T03:45:59.431Z,997.32
2023-03-19T03:46:31.511Z,997.32
2023-03-19T03:47:03.434Z,997.32
2023-03-19T03:47:35.305Z,997.22
2023-03-19T03:48:07.284Z,997.53
2023-03-19T03:48:39.303Z,997.53
2023-03-19T03:49:11.328Z,997.32
2023-03-19T03:49:43.145Z,997.32
2023-03-19T03:50:15.177Z,997.32
2023-03-19T03:50:47.204Z,997.32
2023-03-19T03:51:19.263Z,997.43
2023-03-19T03:51:51.270Z,997.43
2023-03-19T03:52:23.091Z,997.32
2023-03-19T03:52:55.125Z,997.32
2023-03-19T03:53:27.144Z,997.53
2023-03-19T03:53:59.025Z,997.53
2023-03-19T03:54:31.210Z,997.43
2023-03-19T03:55:03.051Z,997.43
2023-03-19T03:55:35.068Z,997.32
2023-03-19T03:56:06.894Z,997.43
2023-03-19T03:56:38.914Z,997.43
2023-03-19T03:57:11.063Z,997.53
2023-03-19T03:57:42.965Z,997.53
2023-03-19T03:58:14.796Z,997.43
2023-03-19T03:58:46.805Z,997.43
2023-03-19T03:59:18.926Z,997.43
2023-03-19T03:59:50.934Z,997.43
2023-03-19T04:00:23.099Z,997.63
2023-03-19T04:00:54.743Z,997.63
2023-03-19T04:01:26.753Z,997.53
2023-03-19T04:01:58.860Z,997.53
2023-03-19T04:02:31.020Z,997.53
2023-03-19T04:03:02.725Z,997.53
2023-03-19T04:03:34.681Z,997.63
2023-03-19T04:04:07.181Z,997.43
2023-03-19T04:04:38.702Z,997.43
2023-03-19T04:05:10.614Z,997.32
2023-03-19T04:05:42.577Z,997.32
2023-03-19T04:06:14.622Z,997.53
2023-03-19T04:06:46.663Z,997.53
2023-03-19T04:07:18.468Z,997.63
2023-03-19T04:07:50.578Z,997.63
2023-03-19T04:08:22.533Z,997.53
2023-03-19T04:08:54.811Z,997.53
2023-03-19T04:09:26.385Z,997.63
2023-03-19T04:09:58.382Z,997.63
2023-03-19T04:10:30.550Z,997.63
2023-03-19T04:11:02.501Z,997.63
2023-03-19T04:11:34.304Z,997.63
2023-03-19T04:12:06.337Z,997.53
2023-03-19T04:12:38.394Z,997.53
2023-03-19T04:13:10.483Z,997.73
2023-03-19T04:13:42.198Z,997.73
2023-03-19T04:14:14.281Z,997.53
2023-03-19T04:14:46.214Z,997.53
2023-03-19T04:15:18.391Z,997.53
2023-03-19T04:15:50.101Z,997.53
2023-03-19T04:16:22.222Z,997.53
2023-03-19T04:16:54.426Z,997.53
2023-03-19T04:17:26.173Z,997.53
2023-03-19T04:17:57.989Z,997.53
2023-03-19T04:18:30.070Z,997.53
2023-03-19T04:19:02.113Z,997.53
2023-03-19T04:19:34.072Z,997.63
2023-03-19T04:20:05.894Z,997.53
2023-03-19T04:20:38.038Z,997.53
2023-03-19T04:21:09.980Z,997.43
2023-03-19T04:21:42.017Z,997.43
2023-03-19T04:22:13.797Z,997.43
2023-03-19T04:22:45.854Z,997.43
2023-03-19T04:23:17.848Z,997.53
2023-03-19T04:23:50.000Z,997.53
2023-03-19T04:24:21.733Z,997.32
2023-03-19T04:24:53.713Z,997.32
2023-03-19T04:25:25.838Z,997.53
2023-03-19T04:25:57.807Z,997.53
2023-03-19T04:26:29.698Z,997.63
2023-03-19T04:27:01.728Z,997.63
2023-03-19T04:27:33.662Z,997.43
2023-03-19T04:28:05.702Z,997.43
2023-03-19T04:28:37.552Z,997.53
2023-03-19T04:29:09.563Z,997.43
2023-03-19T04:29:41.628Z,997.43
2023-03-19T04:30:13.793Z,997.53
2023-03-19T04:30:45.511Z,997.53
2023-03-19T04:31:17.563Z,997.73
2023-03-19T04:31:49.670Z,997.73
2023-03-19T04:32:21.509Z,997.53
2023-03-19T04:32:53.407Z,997.53
2023-03-19T04:33:25.496Z,997.53
2023-03-19T04:33:57.597Z,997.53
2023-03-19T04:34:29.456Z,997.53
2023-03-19T04:35:01.484Z,997.53
2023-03-19T04:35:33.338Z,997.43
2023-03-19T04:36:05.341Z,997.43
2023-03-19T04:36:37.357Z,997.53
2023-03-19T04:37:09.221Z,997.32
2023-03-19T04:37:41.241Z,997.32
2023-03-19T04:38:13.245Z,997.53
2023-03-19T04:38:45.667Z,997.53
2023-03-19T04:39:17.093Z,997.32
2023-03-19T04:39:49.233Z,997.32
2023-03-19T04:40:21.273Z,997.43
2023-03-19T04:40:53.161Z,997.43
2023-03-19T04:41:25.004Z,997.43
2023-03-19T04:41:57.032Z,997.43
2023-03-19T04:42:29.097Z,997.53
2023-03-19T04:43:01.161Z,997.53
2023-03-19T04:43:33.515Z,997.53
2023-03-19T04:44:04.919Z,997.53
2023-03-19T04:44:36.991Z,997.53
2023-03-19T04:45:09.190Z,997.43
2023-03-19T04:45:40.936Z,997.43
2023-03-19T04:46:12.888Z,997.53
2023-03-19T04:46:44.857Z,997.53
2023-03-19T04:47:16.897Z,997.53
2023-03-19T04:47:48.707Z,997.53
2023-03-19T04:48:20.926Z,997.43
2023-03-19T04:48:52.766Z,997.43
2023-03-19T04:49:24.801Z,997.53
2023-03-19T04:49:56.800Z,997.53
2023-03-19T04:50:28.677Z,997.53
2023-03-19T04:51:00.897Z,997.53
2023-03-19T04:51:32.730Z,997.43
2023-03-19T04:52:04.537Z,997.43
2023-03-19T04:52:36.569Z,997.53
2023-03-19T04:53:08.602Z,997.63
2023-03-19T04:53:40.743Z,997.63
2023-03-19T04:54:12.525Z,997.63
2023-03-19T04:54:44.537Z,997.63
2023-03-19T04:55:16.542Z,997.83
2023-03-19T04:55:48.516Z,997.83
2023-03-19T04:56:20.447Z,997.53
2023-03-19T04:56:52.397Z,997.53
2023-03-19T04:57:24.428Z,997.63
2023-03-19T04:57:56.832Z,997.63
2023-03-19T04:58:28.474Z,997.53
2023-03-19T04:59:00.338Z,997.53
2023-03-19T04:59:32.382Z,997.73
2023-03-19T05:00:04.674Z,997.73
2023-03-19T05:00:36.382Z,997.63
2023-03-19T05:01:08.187Z,997.63
2023-03-19T05:01:40.327Z,997.63
2023-03-19T05:02:12.281Z,997.63
2023-03-19T05:02:45.358Z,997.63
2023-03-19T05:03:16.099Z,997.53
2023-03-19T05:03:49.955Z,997.53
2023-03-19T05:04:20.171Z,997.73
2023-03-19T05:04:53.051Z,997.73
2023-03-19T05:05:24.017Z,997.73
2023-03-19T05:05:56.908Z,997.73
2023-03-19T05:06:28.113Z,997.73
2023-03-19T05:07:01.077Z,997.73
2023-03-19T05:07:31.901Z,997.63
2023-03-19T05:08:06.018Z,997.63
2023-03-19T05:08:35.950Z,997.63
2023-03-19T05:09:09.181Z,997.63
2023-03-19T05:09:39.912Z,997.63
2023-03-19T05:10:12.729Z,997.63
2023-03-19T05:10:43.870Z,997.63
2023-03-19T05:11:16.815Z,997.53
2023-03-19T05:11:47.730Z,997.53
2023-03-19T05:12:21.469Z,997.63
2023-03-19T05:12:51.787Z,997.63
2023-03-19T05:13:25.689Z,997.63
2023-03-19T05:13:55.614Z,997.63
2023-03-19T05:14:28.567Z,997.63
2023-03-19T05:14:59.750Z,997.63
2023-03-19T05:15:32.951Z,997.53
2023-03-19T05:16:03.576Z,997.53
2023-03-19T05:16:36.595Z,997.63
2023-03-19T05:17:07.571Z,997.73
2023-03-19T05:17:40.656Z,997.73
2023-03-19T05:18:11.438Z,997.73
2023-03-19T05:18:44.665Z,997.73
2023-03-19T05:19:15.475Z,997.43
2023-03-19T05:19:48.398Z,997.43
2023-03-19T05:20:19.624Z,997.32
2023-03-19T05:20:52.609Z,997.32
2023-03-19T05:21:23.426Z,997.43
2023-03-19T05:21:56.341Z,997.43
2023-03-19T05:22:27.279Z,997.53
2023-03-19T05:23:00.472Z,997.53
2023-03-19T05:23:31.414Z,997.53
2023-03-19T05:24:04.397Z,997.53
2023-03-19T05:24:35.213Z,997.73
2023-03-19T05:25:09.026Z,997.73
2023-03-19T05:25:39.268Z,997.73
2023-03-19T05:26:12.267Z,997.53
2023-03-19T05:26:43.209Z,997.53
2023-03-19T05:27:16.234Z,997.73
2023-03-19T05:27:47.169Z,997.73
2023-03-19T05:28:20.248Z,997.73
2023-03-19T05:28:51.324Z,997.73
2023-03-19T05:29:23.939Z,997.73
2023-03-19T05:29:55.062Z,997.73
2023-03-19T05:30:28.451Z,997.73
2023-03-19T05:30:59.179Z,997.73
2023-03-19T05:31:31.969Z,997.83
2023-03-19T05:32:03.058Z,997.83
2023-03-19T05:32:36.042Z,997.73
2023-03-19T05:33:07.044Z,997.83
2023-03-19T05:33:39.759Z,997.83
2023-03-19T05:34:11.041Z,997.83
2023-03-19T05:34:43.822Z,997.83
2023-03-19T05:35:14.981Z,997.83
2023-03-19T05:35:47.667Z,997.83
2023-03-19T05:36:18.807Z,997.83
2023-03-19T05:36:51.721Z,997.83
2023-03-19T05:37:22.878Z,997.63
2023-03-19T05:37:58.662Z,997.63
2023-03-19T05:38:26.773Z,997.63
2023-03-19T05:38:59.705Z,997.63
2023-03-19T05:39:31.085Z,997.63
2023-03-19T05:40:03.464Z,997.63
2023-03-19T05:40:34.870Z,997.83
2023-03-19T05:41:07.656Z,997.73
2023-03-19T05:41:38.642Z,997.73
2023-03-19T05:42:11.440Z,997.83
2023-03-19T05:42:43.250Z,997.83
2023-03-19T05:43:15.554Z,997.73
2023-03-19T05:43:46.405Z,997.73
2023-03-19T05:44:20.402Z,997.73
2023-03-19T05:44:50.582Z,997.73
2023-03-19T05:45:23.630Z,997.63
2023-03-19T05:45:54.520Z,997.63
2023-03-19T05:46:27.283Z,997.83
2023-03-19T05:46:58.394Z,997.83
2023-03-19T05:47:31.480Z,997.83
2023-03-19T05:48:02.230Z,997.83
2023-03-19T05:48:35.130Z,997.83
2023-03-19T05:49:06.268Z,997.83
2023-03-19T05:49:40.137Z,997.83
2023-03-19T05:50:10.456Z,997.73
2023-03-19T05:50:43.052Z,997.73
2023-03-19T05:51:14.208Z,997.83
2023-03-19T05:51:47.124Z,997.83
2023-03-19T05:52:18.020Z,997.73
2023-03-19T05:52:51.052Z,997.73
2023-03-19T05:53:22.089Z,997.93
2023-03-19T05:53:55.114Z,997.93
2023-03-19T05:54:26.193Z,997.93
2023-03-19T05:54:58.895Z,997.93
2023-03-19T05:55:29.994Z,997.93
2023-03-19T05:56:02.908Z,997.93
2023-03-19T05:56:34.068Z,997.83
2023-03-19T05:57:06.764Z,997.83
2023-03-19T05:57:37.891Z,997.83
2023-03-19T05:58:11.092Z,997.93
2023-03-19T05:58:41.928Z,997.93
2023-03-19T05:59:14.883Z,997.93
2023-03-19T05:59:45.877Z,997.93
2023-03-19T06:00:19.009Z,997.93
2023-03-19T06:00:49.900Z,997.93
2023-03-19T06:01:22.669Z,997.93
2023-03-19T06:01:53.950Z,997.93
2023-03-19T06:02:28.720Z,998.03
2023-03-19T06:02:57.890Z,998.03
2023-03-19T06:03:30.692Z,997.93
2023-03-19T06:04:02.761Z,997.93
2023-03-19T06:04:34.469Z,997.93
2023-03-19T06:05:05.689Z,997.93
2023-03-19T06:05:38.419Z,997.93
2023-03-19T06:06:09.610Z,997.93
2023-03-19T06:06:42.585Z,997.93
2023-03-19T06:07:13.581Z,998.14
2023-03-19T06:07:46.408Z,998.14
2023-03-19T06:08:17.424Z,997.93
2023-03-19T06:08:50.523Z,997.93
2023-03-19T06:09:21.486Z,998.14
2023-03-19T06:09:54.218Z,998.14
2023-03-19T06:10:25.355Z,998.03
2023-03-19T06:10:58.722Z,998.03
2023-03-19T06:11:29.411Z,998.03
2023-03-19T06:12:02.106Z,998.03
2023-03-19T06:12:33.273Z,998.03
2023-03-19T06:13:06.477Z,998.03
2023-03-19T06:13:37.288Z,997.93
2023-03-19T06:14:10.274Z,998.14
2023-03-19T06:14:41.284Z,998.14
2023-03-19T06:15:14.234Z,998.14
2023-03-19T06:15:45.263Z,998.14
2023-03-19T06:16:18.028Z,998.03
2023-03-19T06:16:49.075Z,998.03
2023-03-19T06:17:22.400Z,998.03
2023-03-19T06:17:53.102Z,998.03
2023-03-19T06:18:25.909Z,998.24
2023-03-19T06:18:57.108Z,998.24
2023-03-19T06:19:29.881Z,998.03
2023-03-19T06:20:01.161Z,998.03
2023-03-19T06:20:33.965Z,998.34
2023-03-19T06:21:04.915Z,998.34
2023-03-19T06:21:38.737Z,998.44
2023-03-19T06:22:08.972Z,998.24
2023-03-19T06:22:42.660Z,998.24
2023-03-19T06:23:15.809Z,998.24
2023-03-19T06:23:45.813Z,998.24
2023-03-19T06:24:16.858Z,998.24
2023-03-19T06:24:49.620Z,998.24
2023-03-19T06:25:20.835Z,998.24
2023-03-19T06:25:53.617Z,998.24
2023-03-19T06:26:24.793Z,998.34
2023-03-19T06:26:57.573Z,998.34
2023-03-19T06:27:28.613Z,998.34
2023-03-19T06:28:01.539Z,998.34
2023-03-19T06:28:32.727Z,998.24
2023-03-19T06:29:06.575Z,998.24
2023-03-19T06:29:36.500Z,998.44
2023-03-19T06:30:10.511Z,998.34
2023-03-19T06:30:40.665Z,998.34
2023-03-19T06:31:13.378Z,998.34
2023-03-19T06:31:44.569Z,998.34
2023-03-19T06:32:17.400Z,998.24
2023-03-19T06:32:48.543Z,998.24
2023-03-19T06:33:21.399Z,998.44
2023-03-19T06:33:52.348Z,998.44
2023-03-19T06:34:25.272Z,998.34
2023-03-19T06:34:56.392Z,998.34
2023-03-19T06:35:29.350Z,998.44
2023-03-19T06:36:00.309Z,998.44
2023-03-19T06:36:33.179Z,998.51
2023-03-19T06:37:04.503Z,998.51
2023-03-19T06:37:37.208Z,998.61
2023-03-19T06:38:08.125Z,998.44
2023-03-19T06:38:41.322Z,998.44
2023-03-19T06:39:12.254Z,998.51